TimeCDT,TemperatureF,Dew PointF,Humidity,Sea Level PressureIn,VisibilityMPH,Wind Direction,Wind SpeedMPH,Gust SpeedMPH,PrecipitationIn,Events,Conditions,WindDirDegrees,DateUTC
12:51 AM,64.0,46.0,52,29.97,10.0,NE,6.9,-,N/A,,Clear,50,2013-04-01 05:51:00
1:51 AM,60.1,45.0,57,29.98,10.0,NE,3.5,-,N/A,,Clear,50,2013-04-01 06:51:00
2:51 AM,57.0,44.1,62,29.99,10.0,East,4.6,-,N/A,,Clear,90,2013-04-01 07:51:00
3:51 AM,55.9,44.1,64,29.97,10.0,SE,3.5,-,N/A,,Clear,140,2013-04-01 08:51:00
4:51 AM,53.1,43.0,69,29.96,10.0,Calm,Calm,-,N/A,,Clear,0,2013-04-01 09:51:00
5:51 AM,53.1,45.0,74,29.98,10.0,NNE,4.6,-,N/A,,Clear,20,2013-04-01 10:51:00
6:51 AM,50.0,42.1,74,29.99,10.0,Calm,Calm,-,N/A,,Clear,0,2013-04-01 11:51:00
7:51 AM,52.0,44.1,74,30.01,10.0,ENE,3.5,-,N/A,,Clear,60,2013-04-01 12:51:00
8:51 AM,57.0,48.0,72,30.03,10.0,NE,5.8,-,N/A,,Clear,50,2013-04-01 13:51:00
9:51 AM,63.0,51.1,65,30.03,10.0,ESE,3.5,-,N/A,,Clear,110,2013-04-01 14:51:00
10:51 AM,72.0,57.9,61,30.01,10.0,SSE,11.5,-,N/A,,Clear,150,2013-04-01 15:51:00
11:51 AM,73.9,57.9,57,30.01,10.0,Variable,5.8,-,N/A,,Clear,0,2013-04-01 16:51:00
12:51 PM,78.1,55.9,46,29.98,10.0,ESE,10.4,-,N/A,,Clear,120,2013-04-01 17:51:00
1:51 PM,82.9,54.0,37,29.94,10.0,SSE,11.5,17.3,N/A,,Clear,150,2013-04-01 18:51:00
2:51 PM,84.9,52.0,32,29.91,10.0,South,11.5,18.4,N/A,,Clear,180,2013-04-01 19:51:00
3:51 PM,87.1,48.9,27,29.87,10.0,SE,13.8,-,N/A,,Partly Cloudy,130,2013-04-01 20:51:00
4:51 PM,88.0,42.1,20,29.84,10.0,South,11.5,-,N/A,,Clear,170,2013-04-01 21:51:00
5:51 PM,87.1,45.0,23,29.81,10.0,SE,13.8,23.0,N/A,,Clear,140,2013-04-01 22:51:00
6:51 PM,86.0,44.1,23,29.80,10.0,SE,11.5,-,N/A,,Scattered Clouds,140,2013-04-01 23:51:00
8:51 PM,80.1,46.0,30,29.82,10.0,SE,10.4,-,N/A,,Clear,140,2013-04-02 01:51:00
9:51 PM,79.0,54.0,42,29.84,10.0,SSE,16.1,-,N/A,,Clear,160,2013-04-02 02:51:00
10:51 PM,78.1,55.9,46,29.86,10.0,South,18.4,28.8,N/A,,Clear,180,2013-04-02 03:51:00
11:51 PM,75.9,55.9,50,29.84,10.0,South,11.5,20.7,N/A,,Clear,170,2013-04-02 04:51:00